Time;durP1;ratioP1;P1;durP2;ratioP2;P2;SDS_P1;SDS_P2;PMS_P1;PMS_P2;Temp;Humidity;BMP_temperature;BMP_pressure;BME280_temperature;BME280_humidity;BME280_pressure;Samples;Min_cycle;Max_cycle;Signal;HPM_P1;HPM_P2
2023/04/29 00:00:52;;;;;;;2.40;1.77;;;11.50;99.90;;;12.25;100.00;97864.59;4919716;29;21052;-78
2023/04/29 00:03:22;;;;;;;11.10;2.07;;;11.40;99.90;;;12.23;100.00;97866.59;4922154;29;20470;-78
2023/04/29 00:05:51;;;;;;;1.90;1.17;;;11.50;99.90;;;12.19;100.00;97866.19;4924294;29;20463;-79
2023/04/29 00:08:22;;;;;;;2.50;1.40;;;11.40;99.90;;;12.19;100.00;97865.38;4923190;29;20470;-78
2023/04/29 00:10:52;;;;;;;7.80;1.40;;;11.40;99.90;;;12.15;100.00;97864.97;4925901;28;20478;-78
2023/04/29 00:13:21;;;;;;;1.47;1.27;;;11.40;99.90;;;12.14;100.00;97866.00;4925302;29;21207;-78
2023/04/29 00:15:50;;;;;;;5.10;1.50;;;11.30;99.90;;;12.09;100.00;97863.16;4927190;29;20466;-78
2023/04/29 00:18:19;;;;;;;1.80;1.13;;;11.30;99.90;;;12.03;100.00;97862.16;4927027;29;20474;-79
2023/04/29 00:20:48;;;;;;;2.07;1.80;;;11.30;99.90;;;12.06;100.00;97860.94;4926211;29;20502;-78
2023/04/29 00:23:19;;;;;;;2.00;1.20;;;11.30;99.90;;;12.06;100.00;97855.72;4927142;29;20470;-78
2023/04/29 00:25:52;;;;;;;2.50;1.50;;;11.30;99.90;;;12.04;100.00;97863.75;4926527;29;21222;-79
2023/04/29 00:28:22;;;;;;;8.50;1.30;;;11.30;99.90;;;12.04;100.00;97862.97;4927414;29;20521;-79
2023/04/29 00:30:53;;;;;;;4.93;1.10;;;11.30;99.90;;;12.03;100.00;97863.97;4925997;29;20466;-78
2023/04/29 00:33:22;;;;;;;3.20;1.50;;;11.30;99.90;;;12.03;100.00;97863.97;4925516;29;20509;-79
2023/04/29 00:35:52;;;;;;;1.20;1.10;;;11.30;99.90;;;12.02;100.00;97864.97;4927368;29;20565;-78
2023/04/29 00:38:22;;;;;;;3.70;1.27;;;11.30;99.90;;;12.01;100.00;97874.66;4925587;29;20462;-78
2023/04/29 00:40:55;;;;;;;6.73;1.10;;;11.30;99.90;;;11.98;100.00;97869.81;4926214;29;20593;-78
2023/04/29 00:43:25;;;;;;;3.33;1.13;;;11.30;99.90;;;11.95;100.00;97874.66;4927435;29;20467;-79
2023/04/29 00:45:56;;;;;;;2.43;1.07;;;11.20;99.90;;;11.94;100.00;97867.81;4927037;29;20492;-78
2023/04/29 00:48:26;;;;;;;3.33;1.20;;;11.20;99.90;;;11.93;100.00;97871.44;4924856;29;20481;-78
2023/04/29 00:50:55;;;;;;;1.20;1.00;;;11.10;99.90;;;11.89;100.00;97871.03;4926229;29;20557;-79
2023/04/29 00:53:24;;;;;;;1.53;1.10;;;11.10;99.90;;;11.85;100.00;97863.75;4926253;29;20498;-78
2023/04/29 00:55:57;;;;;;;5.10;1.20;;;11.10;99.90;;;11.85;100.00;97864.56;4925135;29;20514;-78
2023/04/29 00:58:31;;;;;;;1.00;0.90;;;11.00;99.90;;;11.83;100.00;97856.09;4926940;29;20474;-78
2023/04/29 01:01:02;;;;;;;6.73;1.10;;;11.00;99.90;;;11.77;100.00;97856.88;4926188;29;20493;-78
2023/04/29 01:03:32;;;;;;;1.20;1.10;;;11.00;99.90;;;11.80;100.00;97866.16;4925120;29;20474;-78
2023/04/29 01:06:17;;;;;;;1.17;1.00;;;11.00;99.90;;;11.72;100.00;97861.91;4927169;29;20466;-78
2023/04/29 01:09:04;;;;;;;1.13;1.03;;;10.90;99.90;;;11.73;100.00;97866.13;4926139;29;20507;-78
2023/04/29 01:11:54;;;;;;;9.93;1.53;;;10.90;99.90;;;11.68;100.00;97870.34;4924073;29;20584;-78
2023/04/29 01:14:26;;;;;;;3.93;1.37;;;10.80;99.90;;;11.67;100.00;97868.72;4926520;29;20478;-78
2023/04/29 01:17:05;;;;;;;1.40;1.10;;;10.80;99.90;;;11.65;100.00;97876.78;4923770;29;20476;-78
2023/04/29 01:19:46;;;;;;;1.50;1.40;;;10.80;99.90;;;11.63;100.00;97876.97;4923836;29;20473;-78
2023/04/29 01:22:16;;;;;;;1.97;1.10;;;10.80;99.90;;;11.64;100.00;97875.16;4922981;29;20478;-79
2023/04/29 01:24:48;;;;;;;1.13;1.03;;;10.90;99.90;;;11.60;100.00;97866.88;4926333;29;20463;-78
2023/04/29 01:27:31;;;;;;;1.73;1.10;;;10.90;99.90;;;11.54;100.00;97872.94;4923606;29;21060;-78
2023/04/29 01:30:12;;;;;;;1.20;1.10;;;10.80;99.90;;;11.54;100.00;97875.53;4925600;29;20466;-80
2023/04/29 01:32:53;;;;;;;1.10;1.00;;;10.80;99.90;;;11.53;100.00;97876.53;4926502;29;20467;-78
2023/04/29 01:35:55;;;;;;;1.20;1.10;;;10.80;99.90;;;11.48;100.00;97873.72;4926532;29;20549;-78
2023/04/29 01:38:37;;;;;;;1.53;1.20;;;10.80;99.90;;;11.50;100.00;97881.34;4926670;29;20965;-78
2023/04/29 01:41:14;;;;;;;1.50;1.20;;;10.70;99.90;;;11.49;100.00;97879.72;4926299;29;20541;-78
2023/04/29 01:43:51;;;;;;;1.17;1.00;;;10.70;99.90;;;11.49;100.00;97885.78;4926571;29;22689;-78
2023/04/29 01:46:21;;;;;;;3.53;1.20;;;10.80;99.90;;;11.49;100.00;97880.56;4926843;29;20850;-79
2023/04/29 01:48:54;;;;;;;1.20;1.10;;;10.70;99.90;;;11.51;100.00;97878.56;4926169;29;20470;-80
2023/04/29 01:51:24;;;;;;;1.50;1.33;;;10.80;99.90;;;11.52;100.00;97880.16;4927147;29;20482;-78
2023/04/29 01:53:54;;;;;;;1.40;1.30;;;10.80;99.90;;;11.52;100.00;97884.59;4926459;29;20569;-78
2023/04/29 01:56:26;;;;;;;2.47;1.60;;;10.80;99.90;;;11.52;100.00;97887.22;4926077;29;20579;-78
2023/04/29 01:58:56;;;;;;;1.50;1.33;;;10.80;99.90;;;11.52;100.00;97885.38;4926049;29;20466;-78
2023/04/29 02:01:26;;;;;;;1.63;1.37;;;10.80;99.90;;;11.52;100.00;97893.25;4926510;29;20494;-78
2023/04/29 02:03:56;;;;;;;2.23;1.50;;;10.80;99.90;;;11.54;100.00;97898.31;4925675;29;21010;-78
2023/04/29 02:06:26;;;;;;;3.43;1.40;;;10.80;99.90;;;11.54;100.00;97891.25;4924348;29;21089;-78
2023/04/29 02:08:57;;;;;;;2.37;1.47;;;10.80;99.90;;;11.57;100.00;97888.25;4926178;29;20504;-78
2023/04/29 02:11:28;;;;;;;2.03;1.50;;;10.80;99.90;;;11.56;100.00;97891.84;4924099;29;20487;-78
2023/04/29 02:13:58;;;;;;;3.23;1.20;;;10.80;99.90;;;11.56;100.00;97894.47;4926601;29;20507;-78
2023/04/29 02:16:27;;;;;;;7.63;1.93;;;10.80;99.90;;;11.56;100.00;97897.09;4924492;29;20474;-78
2023/04/29 02:18:57;;;;;;;1.67;1.40;;;10.80;99.90;;;11.58;100.00;97897.72;4923939;29;20478;-78
2023/04/29 02:21:28;;;;;;;1.33;1.23;;;10.80;99.90;;;11.58;100.00;97895.09;4924381;29;20498;-78
2023/04/29 02:23:58;;;;;;;3.17;1.13;;;10.80;99.90;;;11.61;100.00;97894.69;4925157;29;20467;-78
2023/04/29 02:26:29;;;;;;;1.63;1.40;;;10.80;99.90;;;11.61;100.00;97896.50;4925800;29;20479;-78
2023/04/29 02:29:00;;;;;;;3.87;1.70;;;10.80;99.90;;;11.63;100.00;97896.31;4924219;29;20974;-78
2023/04/29 02:31:30;;;;;;;1.40;1.30;;;10.90;99.90;;;11.63;100.00;97901.56;4925578;29;20557;-78
2023/04/29 02:34:01;;;;;;;1.30;1.20;;;10.90;99.90;;;11.63;100.00;97895.31;4925490;29;20975;-78
2023/04/29 02:36:31;;;;;;;1.90;1.43;;;10.90;99.90;;;11.65;100.00;97895.13;4926206;29;20837;-79
2023/04/29 02:39:00;;;;;;;2.53;1.47;;;10.90;99.90;;;11.66;100.00;97894.13;4926036;29;20471;-78
2023/04/29 02:41:32;;;;;;;10.60;1.33;;;11.00;99.90;;;11.66;100.00;97895.94;4924736;29;20508;-77
2023/04/29 02:44:01;;;;;;;2.90;1.50;;;11.00;99.90;;;11.69;100.00;97895.53;4924740;29;20498;-78
2023/04/29 02:46:34;;;;;;;2.17;1.20;;;11.00;99.90;;;11.66;100.00;97896.75;4924959;29;20489;-78
2023/04/29 02:49:04;;;;;;;1.60;1.20;;;11.00;99.90;;;11.71;100.00;97894.34;4924519;29;20469;-78
2023/04/29 02:51:34;;;;;;;2.13;1.77;;;11.00;99.90;;;11.69;100.00;97896.34;4925363;29;20489;-78
2023/04/29 02:54:03;;;;;;;5.80;1.17;;;11.00;99.90;;;11.72;100.00;97903.03;4925625;29;20455;-78
2023/04/29 02:56:34;;;;;;;2.80;1.40;;;11.00;99.90;;;11.74;100.00;97895.75;4924820;29;20954;-79
2023/04/29 02:59:04;;;;;;;1.80;1.53;;;11.00;99.90;;;11.77;100.00;97898.78;4924443;29;20513;-79
2023/04/29 03:01:34;;;;;;;7.53;2.20;;;11.00;99.90;;;11.80;100.00;97897.63;4923228;29;20537;-78
2023/04/29 03:04:05;;;;;;;5.43;2.03;;;11.00;99.90;;;11.79;100.00;97896.78;4925535;29;20841;-78
2023/04/29 03:06:34;;;;;;;5.03;1.90;;;11.00;99.90;;;11.83;100.00;97897.22;4924456;29;20466;-78
2023/04/29 03:09:04;;;;;;;5.10;2.07;;;11.10;99.90;;;11.86;100.00;97896.81;4924111;29;20585;-78
2023/04/29 03:11:36;;;;;;;2.90;1.90;;;11.10;99.90;;;11.88;100.00;97894.78;4923757;29;20494;-79
2023/04/29 03:14:05;;;;;;;7.20;2.60;;;11.10;99.90;;;11.90;100.00;97895.41;4924852;29;20474;-78
2023/04/29 03:16:35;;;;;;;2.87;2.30;;;11.20;99.90;;;11.92;100.00;97898.63;4924858;29;20494;-78
2023/04/29 03:19:05;;;;;;;4.00;3.03;;;11.20;99.90;;;11.96;100.00;97905.09;4924416;29;20472;-78
2023/04/29 03:21:36;;;;;;;4.50;2.60;;;11.20;99.90;;;11.95;100.00;97906.91;4922825;29;20842;-78
2023/04/29 03:24:07;;;;;;;3.43;2.50;;;11.30;99.90;;;11.97;100.00;97904.09;4923813;29;20776;-79
2023/04/29 03:26:37;;;;;;;4.40;2.83;;;11.30;99.90;;;11.96;100.00;97903.28;4925230;29;20497;-78
2023/04/29 03:29:06;;;;;;;7.40;2.87;;;11.30;99.90;;;11.98;100.00;97914.34;4922930;29;20490;-79
2023/04/29 03:31:35;;;;;;;4.10;3.40;;;11.30;99.90;;;12.01;100.00;97913.16;4925071;29;20557;-78
2023/04/29 03:34:06;;;;;;;4.13;3.30;;;11.20;99.90;;;12.02;100.00;97912.16;4924305;29;20557;-78
2023/04/29 03:36:36;;;;;;;9.47;3.37;;;11.30;99.90;;;12.01;100.00;97911.34;4924378;29;20463;-78
2023/04/29 03:39:06;;;;;;;6.33;3.50;;;11.30;99.90;;;12.06;100.00;97919.41;4924162;29;21335;-78
2023/04/29 03:41:38;;;;;;;5.83;3.70;;;11.40;99.90;;;12.07;100.00;97921.03;4924527;29;21051;-79
2023/04/29 03:44:09;;;;;;;5.93;4.67;;;11.40;99.90;;;12.08;100.00;97921.81;4924336;29;20848;-78
2023/04/29 03:46:40;;;;;;;4.17;3.10;;;11.40;99.90;;;12.09;100.00;97919.03;4928172;29;20521;-78
2023/04/29 03:49:10;;;;;;;4.17;3.60;;;11.40;99.90;;;12.11;100.00;97926.69;4929378;29;20498;-79
2023/04/29 03:51:40;;;;;;;8.60;4.17;;;11.40;99.90;;;12.11;100.00;97917.00;4926876;29;21065;-78
2023/04/29 03:54:10;;;;;;;7.63;3.40;;;11.40;99.90;;;12.13;100.00;97914.19;4928014;29;20467;-78
2023/04/29 03:56:42;;;;;;;10.27;4.27;;;11.40;99.90;;;12.14;100.00;97918.44;4928680;29;20478;-78
2023/04/29 03:59:13;;;;;;;5.87;3.63;;;11.40;99.90;;;12.14;100.00;97920.25;4928975;29;20986;-79
2023/04/29 04:01:43;;;;;;;8.03;4.10;;;11.40;99.90;;;12.16;100.00;97918.22;4927256;29;20617;-78
2023/04/29 04:04:14;;;;;;;5.73;4.40;;;11.40;99.90;;;12.15;100.00;97921.88;4927544;29;20467;-78
2023/04/29 04:06:50;;;;;;;5.07;3.30;;;11.40;99.90;;;12.09;100.00;97921.63;4927985;29;20446;-78
2023/04/29 04:09:19;;;;;;;5.90;3.23;;;11.40;99.90;;;12.08;100.00;97927.88;4927164;29;20472;-78
2023/04/29 04:11:51;;;;;;;4.13;3.40;;;11.40;99.90;;;12.09;100.00;97919.03;4926642;29;20490;-78
2023/04/29 04:14:21;;;;;;;3.67;3.23;;;11.40;99.90;;;12.11;100.00;97924.06;4926718;29;20517;-78
2023/04/29 04:16:50;;;;;;;5.90;4.40;;;11.40;99.90;;;12.11;100.00;97927.47;4926090;29;20458;-78
2023/04/29 04:19:20;;;;;;;6.77;4.23;;;11.40;99.90;;;12.09;100.00;97931.31;4926408;29;20533;-78
2023/04/29 04:21:49;;;;;;;6.40;3.77;;;11.40;99.90;;;12.13;100.00;97939.59;4927415;29;20489;-78
2023/04/29 04:24:20;;;;;;;6.70;4.10;;;11.50;99.90;;;12.11;100.00;97934.56;4927294;29;20899;-79
2023/04/29 04:26:51;;;;;;;4.93;3.83;;;11.50;99.90;;;12.08;100.00;97942.78;4926120;29;20509;-78
2023/04/29 04:29:21;;;;;;;9.60;3.80;;;11.30;99.90;;;12.07;100.00;97949.06;4927360;29;20466;-78
2023/04/29 04:31:52;;;;;;;6.20;4.10;;;11.40;99.90;;;12.08;100.00;97948.03;4928323;29;20462;-78
2023/04/29 04:34:21;;;;;;;6.93;4.23;;;11.40;99.90;;;12.08;100.00;97948.84;4927450;29;20466;-78
2023/04/29 04:36:52;;;;;;;5.60;4.10;;;11.40;99.90;;;12.04;100.00;97957.31;4928529;29;20498;-79
2023/04/29 04:39:22;;;;;;;10.03;5.07;;;11.40;99.90;;;12.03;100.00;97951.28;4927872;29;20504;-81
2023/04/29 04:41:53;;;;;;;8.10;4.73;;;11.30;99.90;;;12.06;100.00;97961.34;4925995;29;20620;-79
2023/04/29 04:44:23;;;;;;;10.63;6.40;;;11.40;99.90;;;12.10;100.00;97964.38;4927019;29;20494;-79
2023/04/29 04:46:52;;;;;;;7.33;4.93;;;11.40;99.90;;;12.08;100.00;97963.75;4926662;29;20474;-78
2023/04/29 04:49:23;;;;;;;9.30;6.17;;;11.40;99.90;;;12.08;100.00;97966.38;4926696;29;20558;-79
2023/04/29 04:51:53;;;;;;;12.80;5.07;;;11.40;99.90;;;12.10;100.00;97972.25;4926243;29;20558;-78
2023/04/29 04:54:23;;;;;;;7.07;5.00;;;11.40;99.90;;;12.12;100.00;97975.47;4925963;29;20473;-78
2023/04/29 04:56:55;;;;;;;9.23;5.53;;;11.50;99.90;;;12.10;100.00;97972.25;4926270;29;21292;-78
2023/04/29 04:59:24;;;;;;;9.80;5.50;;;11.40;99.90;;;12.13;100.00;97982.34;4926240;29;20492;-78
2023/04/29 05:01:54;;;;;;;9.10;5.93;;;11.40;99.90;;;12.11;100.00;97984.38;4926709;29;20553;-78
2023/04/29 05:04:23;;;;;;;13.50;6.37;;;11.50;99.90;;;12.09;100.00;97981.94;4927950;29;20466;-78
2023/04/29 05:06:53;;;;;;;17.27;6.50;;;11.40;99.90;;;12.11;100.00;97986.97;4926124;29;20847;-78
2023/04/29 05:09:25;;;;;;;16.80;6.50;;;11.40;99.90;;;12.14;100.00;97991.81;4926770;29;20470;-78
2023/04/29 05:11:58;;;;;;;9.20;6.40;;;11.50;99.90;;;12.15;100.00;97995.25;4926428;29;20482;-79
2023/04/29 05:14:28;;;;;;;7.23;5.33;;;11.50;99.90;;;12.14;100.00;97989.22;4926821;29;20550;-78
2023/04/29 05:16:59;;;;;;;10.37;6.70;;;11.40;99.90;;;12.14;100.00;97999.69;4926452;29;20504;-79
2023/04/29 05:19:30;;;;;;;8.47;5.83;;;11.40;99.90;;;12.11;100.00;97998.25;4927296;29;20946;-78
2023/04/29 05:22:01;;;;;;;14.17;7.37;;;11.40;99.90;;;12.13;100.00;98002.50;4926025;29;20589;-78
2023/04/29 05:24:30;;;;;;;23.80;6.30;;;11.40;99.90;;;12.16;100.00;98010.78;4924944;29;20474;-80
2023/04/29 05:27:03;;;;;;;9.07;5.47;;;11.50;99.90;;;12.17;100.00;98004.53;4926494;29;20466;-80
2023/04/29 05:29:32;;;;;;;13.53;6.27;;;11.50;99.90;;;12.16;100.00;98010.78;4926048;29;20474;-78
2023/04/29 05:32:03;;;;;;;9.90;6.40;;;11.40;99.90;;;12.18;100.00;98007.97;4926764;29;20470;-78
2023/04/29 05:34:33;;;;;;;15.13;5.93;;;11.40;99.90;;;12.17;100.00;98009.78;4926359;29;20553;-78
2023/04/29 05:37:03;;;;;;;9.60;6.00;;;11.40;99.90;;;12.19;100.00;98013.00;4925889;29;20988;-78
2023/04/29 05:39:32;;;;;;;8.43;5.93;;;11.50;99.90;;;12.19;100.00;98013.00;4925474;29;21486;-79
2023/04/29 05:42:04;;;;;;;11.53;6.33;;;11.50;99.90;;;12.22;100.00;98009.19;4925616;29;20526;-78
2023/04/29 05:44:35;;;;;;;14.03;6.80;;;11.50;99.90;;;12.19;100.00;98013.00;4925340;29;20545;-78
2023/04/29 05:47:04;;;;;;;8.63;5.50;;;11.50;99.90;;;12.19;100.00;98015.63;4925697;29;20454;-78
2023/04/29 05:49:34;;;;;;;9.57;6.27;;;11.50;99.90;;;12.20;100.00;98016.44;4926344;29;20473;-78
2023/04/29 05:52:05;;;;;;;11.90;5.50;;;11.50;99.90;;;12.20;100.00;98019.88;4925907;29;21034;-78
2023/04/29 05:54:35;;;;;;;8.10;6.40;;;11.50;99.90;;;12.24;100.00;98026.34;4924995;29;20474;-80
2023/04/29 05:57:06;;;;;;;15.20;7.57;;;11.50;99.90;;;12.22;100.00;98022.31;4924725;29;21073;-78
2023/04/29 05:59:36;;;;;;;11.33;7.47;;;11.50;99.90;;;12.24;100.00;98031.56;4925835;29;20525;-78
2023/04/29 06:02:06;;;;;;;9.93;6.00;;;11.50;99.90;;;12.26;100.00;98026.13;4925373;29;20592;-78
2023/04/29 06:04:46;;;;;;;9.40;6.27;;;11.60;99.90;;;12.28;100.00;98026.75;4926151;29;20537;-78
2023/04/29 06:07:17;;;;;;;9.47;6.03;;;11.60;99.90;;;12.29;100.00;98023.91;4926913;29;20470;-78
2023/04/29 06:09:47;;;;;;;12.57;7.67;;;11.60;99.90;;;12.25;100.00;98033.16;4924162;29;20488;-78
2023/04/29 06:12:19;;;;;;;10.57;6.33;;;11.60;99.90;;;12.22;100.00;98043.28;4924386;29;20476;-78
2023/04/29 06:14:49;;;;;;;14.07;6.97;;;11.50;99.90;;;12.25;100.00;98048.91;4926032;29;20470;-78
2023/04/29 06:17:19;;;;;;;10.40;6.43;;;11.60;99.90;;;12.24;100.00;98052.56;4919752;29;20478;-79
2023/04/29 06:19:48;;;;;;;19.60;10.30;;;11.60;99.90;;;12.22;100.00;98046.69;4922448;29;20522;-78
2023/04/29 06:22:18;;;;;;;10.80;6.33;;;11.60;99.90;;;12.23;100.00;98045.69;4922128;29;20481;-79
2023/04/29 06:24:48;;;;;;;9.70;6.67;;;11.60;99.90;;;12.23;100.00;98053.56;4922552;29;20505;-78
2023/04/29 06:27:19;;;;;;;9.93;6.47;;;11.70;99.90;;;12.16;100.00;98049.28;4921405;29;20474;-78
2023/04/29 06:29:50;;;;;;;9.83;6.67;;;11.60;99.90;;;12.20;100.00;98051.31;4918827;29;20827;-78
2023/04/29 06:32:20;;;;;;;11.27;7.13;;;11.60;99.90;;;12.17;100.00;98051.72;4919008;29;20477;-78
2023/04/29 06:34:51;;;;;;;10.23;6.50;;;11.70;99.90;;;12.22;100.00;98054.53;4920498;29;20472;-78
2023/04/29 06:37:20;;;;;;;10.03;5.77;;;11.60;99.90;;;12.27;100.00;98065.25;4923248;29;20459;-79
2023/04/29 06:39:51;;;;;;;11.97;7.33;;;11.60;99.90;;;12.22;100.00;98065.03;4922416;29;20911;-73
2023/04/29 06:42:23;;;;;;;20.30;11.23;;;11.70;99.90;;;12.23;100.00;98066.66;4923129;29;20965;-75
2023/04/29 06:44:53;;;;;;;11.20;6.23;;;11.70;99.90;;;12.18;100.00;98068.25;4921008;29;20504;-75
2023/04/29 06:47:23;;;;;;;8.93;5.97;;;11.60;99.90;;;12.20;100.00;98071.47;4922351;29;20840;-75
2023/04/29 06:49:53;;;;;;;12.20;4.67;;;11.60;99.90;;;12.25;100.00;98079.59;4924634;29;20893;-75
2023/04/29 06:52:24;;;;;;;9.93;6.00;;;11.60;99.90;;;12.29;100.00;98084.22;4922476;29;20485;-75
2023/04/29 06:54:53;;;;;;;9.80;5.60;;;11.60;99.90;;;12.29;100.00;98089.47;4924037;29;20534;-75
2023/04/29 06:57:25;;;;;;;8.53;5.30;;;11.70;99.90;;;12.33;100.00;98085.44;4924891;29;20564;-74
2023/04/29 06:59:54;;;;;;;8.17;5.17;;;11.70;99.90;;;12.29;100.00;98094.72;4924223;29;20474;-74
2023/04/29 07:02:25;;;;;;;11.93;4.67;;;11.80;99.90;;;12.27;100.00;98096.72;4923658;29;20463;-75
2023/04/29 07:04:56;;;;;;;6.63;4.40;;;11.80;99.90;;;12.30;100.00;98098.94;4924732;29;20498;-74
2023/04/29 07:07:26;;;;;;;6.67;4.30;;;11.80;99.90;;;12.29;100.00;98102.56;4923732;29;20454;-74
2023/04/29 07:09:56;;;;;;;7.03;4.53;;;11.70;99.90;;;12.23;100.00;98102.56;4919613;29;21247;-74
2023/04/29 07:12:28;;;;;;;6.67;4.30;;;11.80;99.90;;;12.26;100.00;98104.78;4932813;28;20474;-75
2023/04/29 07:14:58;;;;;;;5.90;3.47;;;11.70;99.90;;;12.26;100.00;98104.78;4921074;29;20550;-73
2023/04/29 07:17:31;;;;;;;35.90;18.63;;;11.70;99.90;;;12.26;100.00;98108.22;4921659;29;20470;-75
2023/04/29 07:20:00;;;;;;;11.13;4.80;;;11.70;99.90;;;12.30;100.00;98116.50;4921238;29;21270;-74
2023/04/29 07:22:29;;;;;;;4.57;3.53;;;11.70;99.90;;;12.34;100.00;98128.22;4921190;29;20466;-75
2023/04/29 07:25:00;;;;;;;6.37;3.90;;;11.80;99.90;;;12.37;100.00;98123.38;4921441;29;20593;-75
2023/04/29 07:27:30;;;;;;;5.50;3.90;;;11.80;99.90;;;12.43;100.00;98134.91;4922996;29;21362;-75
2023/04/29 07:30:01;;;;;;;5.93;3.90;;;11.80;99.90;;;12.37;100.00;98136.50;4921652;29;20467;-75
2023/04/29 07:32:31;;;;;;;4.70;3.50;;;11.80;99.90;;;12.42;100.00;98139.34;4922002;29;20493;-75
2023/04/29 07:35:01;;;;;;;7.70;3.17;;;11.80;99.90;;;12.41;100.00;98148.22;4923809;29;20521;-75
2023/04/29 07:37:31;;;;;;;6.00;3.37;;;11.90;99.90;;;12.38;100.00;98143.38;4922197;29;20525;-75
2023/04/29 07:40:02;;;;;;;5.17;3.30;;;11.80;99.90;;;12.41;100.00;98145.59;4921320;29;20517;-75
2023/04/29 07:42:32;;;;;;;6.50;3.40;;;11.90;99.90;;;12.40;100.00;98141.34;4920508;29;20474;-75
2023/04/29 07:45:02;;;;;;;3.97;2.93;;;11.90;99.90;;;12.48;100.00;98143.00;4923349;29;21432;-75
2023/04/29 07:47:32;;;;;;;5.90;3.93;;;11.90;99.90;;;12.49;100.00;98144.63;4922703;29;20496;-75
2023/04/29 07:50:00;;;;;;;7.30;3.33;;;11.90;99.90;;;12.50;100.00;98154.91;4922157;29;20979;-75
2023/04/29 07:52:31;;;;;;;4.80;3.00;;;11.90;99.90;;;12.54;100.00;98156.13;4921609;29;20471;-75
2023/04/29 07:55:01;;;;;;;4.83;3.40;;;11.90;99.90;;;12.54;100.00;98157.94;4925445;29;20484;-75
2023/04/29 07:57:32;;;;;;;5.00;3.43;;;11.90;99.90;;;12.56;100.00;98156.72;4923860;29;20478;-75
2023/04/29 08:00:01;;;;;;;4.30;2.60;;;11.90;99.90;;;12.59;100.00;98161.63;4924145;29;20553;-75
2023/04/29 08:02:32;;;;;;;4.20;2.90;;;11.90;99.90;;;12.59;100.00;98163.41;4923654;29;20466;-75
2023/04/29 08:05:02;;;;;;;8.07;3.20;;;11.90;99.90;;;12.63;100.00;98166.47;4925215;29;20494;-75
2023/04/29 08:07:33;;;;;;;3.47;2.27;;;12.00;99.90;;;12.67;100.00;98167.69;4924895;29;20498;-80
2023/04/29 08:10:02;;;;;;;5.40;3.03;;;12.00;99.90;;;12.67;100.00;98172.94;4923565;29;21068;-75
2023/04/29 08:12:34;;;;;;;4.13;2.60;;;12.00;99.90;;;12.69;100.00;98170.91;4923726;29;21049;-75
2023/04/29 08:15:05;;;;;;;3.93;3.13;;;12.10;99.90;;;12.69;100.00;98171.72;4925908;29;20507;-75
2023/04/29 08:17:39;;;;;;;3.03;2.20;;;12.10;99.90;;;12.69;100.00;98170.91;4925863;29;20462;-75
2023/04/29 08:20:11;;;;;;;5.17;3.20;;;12.10;99.90;;;12.68;100.00;98179.78;4923023;29;20474;-75
2023/04/29 08:22:41;;;;;;;4.87;2.80;;;12.10;99.90;;;12.67;100.00;98173.72;4924032;29;20462;-76
2023/04/29 08:25:12;;;;;;;2.80;2.50;;;12.10;99.90;;;12.66;100.00;98179.19;4924820;29;20593;-75
2023/04/29 08:27:44;;;;;;;4.63;2.77;;;12.20;99.90;;;12.65;100.00;98172.31;4923173;29;20477;-75
2023/04/29 08:30:15;;;;;;;2.83;2.10;;;12.10;99.90;;;12.69;100.00;98181.41;4925337;29;20466;-75
2023/04/29 08:32:44;;;;;;;3.53;2.47;;;12.20;99.90;;;12.73;100.00;98180.81;4927554;29;20468;-75
2023/04/29 08:35:14;;;;;;;2.87;2.00;;;12.20;99.90;;;12.75;100.00;98185.84;4926921;29;20979;-75
2023/04/29 08:37:43;;;;;;;5.53;2.60;;;12.20;99.90;;;12.75;100.00;98183.25;4927280;29;20502;-75
2023/04/29 08:40:14;;;;;;;5.07;2.63;;;12.10;99.90;;;12.77;100.00;98189.13;4926263;29;20558;-75
2023/04/29 08:42:46;;;;;;;3.90;2.27;;;12.00;99.90;;;12.82;100.00;98189.31;4924302;29;20578;-75
2023/04/29 08:45:24;;;;;;;4.90;2.90;;;12.10;99.90;;;12.86;100.00;98193.16;4925025;29;20482;-75
2023/04/29 08:47:56;;;;;;;4.70;3.33;;;12.20;99.90;;;12.87;100.00;98195.59;4924272;29;20465;-73
2023/04/29 08:50:26;;;;;;;3.50;2.40;;;12.30;99.90;;;12.88;100.00;98199.00;4925938;29;20469;-75
2023/04/29 08:52:56;;;;;;;3.00;2.43;;;12.30;99.90;;;12.89;100.00;98198.03;4925498;29;21001;-75
2023/04/29 08:55:26;;;;;;;3.70;2.47;;;12.30;99.90;;;12.79;100.00;98202.84;4924045;29;20749;-75
2023/04/29 08:57:58;;;;;;;5.20;2.30;;;12.30;99.90;;;12.85;100.00;98205.47;4924609;29;20833;-75
2023/04/29 09:00:27;;;;;;;4.33;2.90;;;12.30;99.90;;;12.89;100.00;98208.53;4924421;29;20510;-75
2023/04/29 09:02:59;;;;;;;3.83;2.53;;;12.30;99.90;;;12.91;100.00;98212.56;4924486;29;20467;-75
2023/04/29 09:05:29;;;;;;;4.07;2.60;;;12.30;99.90;;;12.88;100.00;98206.88;4927155;29;20878;-75
2023/04/29 09:08:02;;;;;;;3.50;2.10;;;12.20;99.90;;;12.93;100.00;98205.31;4927497;29;20455;-76
2023/04/29 09:10:32;;;;;;;3.30;2.93;;;12.30;99.90;;;12.93;100.00;98207.94;4923779;29;20834;-75
2023/04/29 09:13:02;;;;;;;3.87;2.83;;;12.30;99.90;;;12.96;100.00;98209.34;4922548;29;20672;-75
2023/04/29 09:15:39;;;;;;;6.00;2.50;;;12.30;99.90;;;13.02;100.00;98213.81;4923343;29;20462;-75
2023/04/29 09:18:08;;;;;;;3.57;2.70;;;12.30;99.90;;;13.04;100.00;98207.38;4922726;29;20468;-75
2023/04/29 09:20:37;;;;;;;3.23;2.40;;;12.40;99.90;;;13.04;100.00;98212.63;4922232;29;20462;-75
2023/04/29 09:23:08;;;;;;;2.53;2.07;;;12.40;99.90;;;13.09;100.00;98215.47;4920771;29;20466;-75
2023/04/29 09:25:38;;;;;;;3.10;2.00;;;12.40;99.90;;;13.12;100.00;98222.13;4917775;29;20518;-74
2023/04/29 09:28:17;;;;;;;3.13;1.97;;;12.50;99.90;;;13.10;100.00;98227.59;4921527;29;20598;-75
2023/04/29 09:30:49;;;;;;;2.70;2.27;;;12.40;99.90;;;13.08;100.00;98226.16;4922781;29;20513;-75
2023/04/29 09:33:19;;;;;;;3.40;2.73;;;12.30;99.90;;;13.12;100.00;98235.25;4922576;29;20490;-75
2023/04/29 09:35:50;;;;;;;2.90;2.40;;;12.40;99.90;;;13.11;100.00;98233.66;4921528;29;20502;-75
2023/04/29 09:38:20;;;;;;;3.47;2.20;;;12.50;99.90;;;13.05;100.00;98234.44;4921640;29;20518;-75
2023/04/29 09:40:52;;;;;;;5.60;2.50;;;12.60;99.90;;;13.09;100.00;98238.28;4920333;29;21008;-75
2023/04/29 09:43:30;;;;;;;6.50;4.27;;;12.50;99.90;;;13.10;100.00;98242.53;4916558;29;20505;-75
2023/04/29 09:45:58;;;;;;;5.00;3.30;;;12.50;99.90;;;13.13;100.00;98246.56;4914959;29;21202;-75
2023/04/29 09:48:34;;;;;;;3.37;2.20;;;12.50;99.90;;;13.16;100.00;98247.00;4920044;29;20485;-75
2023/04/29 09:51:04;;;;;;;3.83;2.00;;;12.60;99.90;;;13.18;100.00;98238.94;4918348;29;20580;-74
2023/04/29 09:53:37;;;;;;;4.40;2.70;;;12.60;99.90;;;13.19;100.00;98251.84;4922399;29;20626;-74
2023/04/29 09:56:08;;;;;;;2.83;2.20;;;12.60;99.90;;;13.21;100.00;98249.84;4920847;29;20471;-75
2023/04/29 09:58:39;;;;;;;3.07;2.50;;;12.60;99.90;;;13.23;100.00;98245.19;4921745;29;20498;-75
2023/04/29 10:01:12;;;;;;;4.10;2.77;;;12.60;99.90;;;13.26;100.00;98252.66;4921108;29;20735;-75
2023/04/29 10:03:43;;;;;;;3.33;2.17;;;12.60;99.90;;;13.21;100.00;98251.66;4921520;29;20466;-75
2023/04/29 10:06:14;;;;;;;2.37;2.00;;;12.70;99.90;;;13.22;100.00;98251.47;4921417;29;20493;-75
2023/04/29 10:08:45;;;;;;;2.83;2.07;;;12.70;99.90;;;13.19;100.00;98251.84;4918142;29;20880;-76
2023/04/29 10:11:16;;;;;;;2.23;1.80;;;12.70;99.90;;;13.25;100.00;98250.25;4918744;29;20988;-75
2023/04/29 10:13:49;;;;;;;3.63;2.47;;;12.70;99.90;;;13.25;100.00;98260.75;4915851;29;20607;-75
2023/04/29 10:16:35;;;;;;;2.80;2.00;;;12.70;99.90;;;13.28;100.00;98255.91;4916786;29;20461;-75
2023/04/29 10:19:15;;;;;;;2.73;2.03;;;12.80;99.90;;;13.24;100.00;98259.94;4917695;29;21040;-74
2023/04/29 10:21:44;;;;;;;3.33;2.30;;;12.70;99.90;;;13.26;100.00;98259.75;4915656;29;21087;-75
2023/04/29 10:24:17;;;;;;;3.23;2.40;;;12.60;99.90;;;13.31;100.00;98260.78;4920596;29;20557;-75
2023/04/29 10:26:51;;;;;;;4.30;2.10;;;12.60;99.90;;;13.28;100.00;98249.84;4920176;29;20596;-75
2023/04/29 10:29:26;;;;;;;4.60;2.20;;;12.60;99.90;;;13.28;100.00;98258.56;4918205;29;20462;-75